Time;durP1;ratioP1;P1;durP2;ratioP2;P2;SDS_P1;SDS_P2;PMS_P1;PMS_P2;Temp;Humidity;BMP_temperature;BMP_pressure;BME280_temperature;BME280_humidity;BME280_pressure;Samples;Min_cycle;Max_cycle;Signal;HPM_P1;HPM_P2
2022/08/15 00:01:36;;;;;;;9.23;8.63;;;;;;;20.08;77.49;99012.06;10507999;28;20071;-70
2022/08/15 00:06:45;;;;;;;8.10;7.60;;;;;;;19.82;78.00;99008.97;10508624;28;20094;-70
2022/08/15 00:11:54;;;;;;;9.00;8.30;;;;;;;19.67;78.61;98997.81;10508847;28;20049;-69
2022/08/15 00:16:58;;;;;;;9.15;8.60;;;;;;;19.97;77.96;98998.84;10508275;28;20048;-69
2022/08/15 00:22:04;;;;;;;9.65;9.05;;;;;;;19.57;79.18;98997.75;10507589;28;20051;-70
2022/08/15 00:27:20;;;;;;;9.85;9.25;;;;;;;19.37;80.53;99002.09;10507323;28;20068;-69
2022/08/15 00:32:26;;;;;;;8.82;8.32;;;;;;;19.33;80.80;98998.00;10507727;28;20084;-69
2022/08/15 00:37:55;;;;;;;8.68;7.97;;;;;;;19.48;79.96;99003.00;10506457;28;20049;-70
2022/08/15 00:43:15;;;;;;;9.15;8.50;;;;;;;19.71;78.87;99007.25;10491908;28;20095;-70
2022/08/15 00:53:39;;;;;;;10.07;9.43;;;;;;;18.92;82.76;99001.44;10487089;28;20094;-70
2022/08/15 00:58:43;;;;;;;9.75;9.15;;;;;;;19.07;82.40;98984.19;10487816;28;20063;-70
2022/08/15 01:03:56;;;;;;;9.43;8.83;;;;;;;19.18;81.59;98977.13;10506886;28;20040;-69
2022/08/15 01:09:01;;;;;;;10.57;9.70;;;;;;;19.00;82.02;98977.69;10488550;28;20294;-69
2022/08/15 01:14:09;;;;;;;10.05;9.38;;;;;;;18.93;82.80;98981.00;10505815;28;20037;-69
2022/08/15 01:19:44;;;;;;;9.38;8.75;;;;;;;19.10;81.44;98980.44;10491161;28;20105;-70
2022/08/15 01:25:02;;;;;;;9.93;9.13;;;;;;;19.33;79.75;98974.00;10441757;28;20037;-71
2022/08/15 01:30:28;;;;;;;10.38;9.77;;;;;;;19.10;81.10;98981.28;10441556;28;20049;-71
2022/08/15 01:35:51;;;;;;;10.13;9.52;;;;;;;18.86;82.07;98980.66;10461482;28;20043;-70
2022/08/15 01:41:20;;;;;;;10.20;9.50;;;;;;;18.49;84.58;98975.66;10442487;28;20045;-70
2022/08/15 01:46:32;;;;;;;9.93;9.32;;;;;;;18.51;84.15;98973.72;10442824;28;20457;-70
2022/08/15 01:51:34;;;;;;;9.30;8.70;;;;;;;18.64;83.63;98977.06;10441483;28;20049;-71
2022/08/15 01:56:39;;;;;;;10.45;9.73;;;;;;;18.48;84.68;98979.28;10459365;28;20037;-70
2022/08/15 02:01:55;;;;;;;10.50;9.90;;;;;;;18.54;84.61;98975.28;10441269;28;20045;-70
2022/08/15 02:07:03;;;;;;;8.88;8.27;;;;;;;18.61;83.41;98976.47;10441731;28;20072;-70
2022/08/15 02:12:08;;;;;;;8.97;8.47;;;;;;;18.93;81.82;98968.53;10441019;28;20052;-70
2022/08/15 02:17:30;;;;;;;10.27;9.57;;;;;;;18.70;82.72;98959.78;10427578;28;20490;-71
2022/08/15 02:22:33;;;;;;;10.02;9.32;;;;;;;18.55;83.66;98971.63;10482075;28;20066;-71
2022/08/15 02:27:37;;;;;;;10.70;9.85;;;;;;;18.57;83.91;98964.38;10481560;28;20076;-70
2022/08/15 02:32:43;;;;;;;;;;;;;;;18.55;83.82;98959.19;10482279;28;20135;-70
2022/08/15 02:37:48;;;;;;;10.10;9.50;;;;;;;18.26;84.96;98964.22;10481440;28;19927;-71
2022/08/15 02:43:04;;;;;;;10.40;9.70;;;;;;;18.23;85.46;98963.59;10466778;28;20048;-71
2022/08/15 02:48:08;;;;;;;10.57;9.97;;;;;;;18.36;84.14;98958.97;10481485;28;20071;-71
2022/08/15 02:53:29;;;;;;;10.40;9.73;;;;;;;18.13;85.04;98958.19;10481715;28;20049;-71
2022/08/15 02:58:33;;;;;;;10.30;9.60;;;;;;;17.97;85.93;98955.03;10481074;28;20055;-71
2022/08/15 03:03:46;;;;;;;10.25;9.65;;;;;;;18.07;85.11;98958.69;10499231;28;20119;-71
2022/08/15 03:08:48;;;;;;;10.80;10.17;;;;;;;17.83;86.41;98959.63;10499751;28;20047;-70
2022/08/15 03:13:50;;;;;;;10.75;9.82;;;;;;;17.79;85.97;98955.53;10498703;28;20044;-71
2022/08/15 03:18:55;;;;;;;10.20;9.30;;;;;;;17.71;87.36;98951.75;10504489;28;20062;-71
2022/08/15 03:23:58;;;;;;;10.60;9.90;;;;;;;18.06;85.03;98951.66;10488484;28;20048;-70
2022/08/15 03:29:02;;;;;;;10.68;9.98;;;;;;;17.97;84.73;98947.06;10488846;28;20505;-71
2022/08/15 03:34:13;;;;;;;11.70;10.90;;;;;;;17.73;86.79;98948.00;10489474;28;20412;-70
2022/08/15 03:39:17;;;;;;;11.10;10.25;;;;;;;17.92;85.52;98947.44;10488373;28;20071;-71
2022/08/15 03:44:19;;;;;;;10.32;9.52;;;;;;;17.81;86.00;98947.44;10488115;28;20493;-70
2022/08/15 03:49:29;;;;;;;11.88;10.98;;;;;;;17.75;85.58;98942.59;10506375;28;20106;-72
2022/08/15 03:54:51;;;;;;;10.70;9.90;;;;;;;17.77;85.56;98946.00;10488462;28;20044;-71
2022/08/15 03:59:57;;;;;;;11.57;10.75;;;;;;;17.58;86.46;98944.75;10488664;28;20398;-72
2022/08/15 04:05:00;;;;;;;10.77;9.98;;;;;;;17.83;85.30;98951.66;10506411;28;20036;-71
2022/08/15 04:10:09;;;;;;;11.20;10.50;;;;;;;17.82;84.93;98944.66;10489542;28;20428;-71
2022/08/15 04:15:31;;;;;;;10.27;9.67;;;;;;;17.64;85.92;98943.41;10490906;28;20045;-71
2022/08/15 04:20:33;;;;;;;10.82;10.23;;;;;;;17.80;84.96;98948.44;10487169;28;20130;-70
2022/08/15 04:25:42;;;;;;;11.15;10.35;;;;;;;17.72;85.89;98946.31;10487171;28;20528;-70
2022/08/15 04:31:02;;;;;;;10.20;9.60;;;;;;;18.00;84.43;98953.00;10485029;28;20072;-71
2022/08/15 04:36:11;;;;;;;12.10;11.02;;;;;;;17.89;85.01;98937.91;10486433;28;20083;-71
2022/08/15 04:41:22;;;;;;;;;;;;;;;17.80;86.16;98943.94;10487484;28;20036;-71
2022/08/15 04:46:44;;;;;;;11.02;10.30;;;;;;;17.94;85.56;98944.66;10485631;28;19947;-71
2022/08/15 04:51:46;;;;;;;11.65;10.65;;;;;;;18.20;83.64;98950.56;10486621;28;20080;-71
2022/08/15 04:56:49;;;;;;;11.82;10.93;;;;;;;18.17;83.81;98951.66;10485913;28;20404;-71
2022/08/15 05:01:56;;;;;;;28.45;12.88;;;;;;;18.08;84.56;98945.25;10486357;28;20501;-70
2022/08/15 05:07:18;;;;;;;12.20;10.93;;;;;;;18.51;81.50;98938.28;10504674;28;20048;-71
2022/08/15 05:12:21;;;;;;;12.23;11.10;;;;;;;18.54;82.19;98938.00;10485964;28;20237;-71
2022/08/15 05:17:24;;;;;;;10.93;10.07;;;;;;;19.06;78.88;98931.91;10485014;28;20068;-71
2022/08/15 05:22:57;;;;;;;11.27;10.30;;;;;;;19.49;76.09;98925.59;10484299;28;20044;-70
2022/08/15 05:28:03;;;;;;;11.20;10.40;;;;;;;19.85;74.67;98929.56;10484753;28;20048;-71
2022/08/15 05:33:28;;;;;;;10.73;9.88;;;;;;;19.69;76.49;98928.38;10483971;28;20052;-70
2022/08/15 05:38:58;;;;;;;11.82;10.90;;;;;;;20.02;74.56;98938.75;10504043;28;20040;-71
2022/08/15 05:44:19;;;;;;;11.20;10.30;;;;;;;20.25;73.30;98925.19;10486359;28;20611;-70
2022/08/15 05:49:54;;;;;;;11.57;10.77;;;;;;;19.88;75.67;98928.47;10471930;28;20045;-71
2022/08/15 05:55:06;;;;;;;11.05;10.32;;;;;;;20.43;72.76;98936.88;10485139;28;20052;-71
2022/08/15 06:00:12;;;;;;;11.38;10.57;;;;;;;20.54;72.48;98942.16;10482959;28;20067;-71
2022/08/15 06:05:46;;;;;;;11.30;10.48;;;;;;;20.39;73.23;98940.81;10482419;28;20071;-71
2022/08/15 06:11:10;;;;;;;10.32;9.63;;;;;;;20.66;72.52;98954.38;10482807;28;20048;-70
2022/08/15 06:16:24;;;;;;;10.25;9.35;;;;;;;20.83;71.81;98955.50;10500402;28;20037;-71
2022/08/15 06:22:31;;;;;;;10.40;9.60;;;;;;;21.04;71.97;98955.38;10482938;28;20424;-71
2022/08/15 06:28:02;;;;;;;9.85;9.05;;;;;;;21.25;71.19;98949.00;10437187;28;20044;-71
2022/08/15 06:33:40;;;;;;;14.25;8.85;;;;;;;21.39;71.69;98945.94;10480837;28;20040;-72
2022/08/15 06:39:30;;;;;;;10.18;9.18;;;;;;;21.36;71.85;98941.72;10480446;28;20044;-70
2022/08/15 06:44:33;;;;;;;8.77;7.97;;;;;;;21.52;71.11;98946.47;10450413;28;20404;-70
2022/08/15 06:49:47;;;;;;;8.18;7.50;;;;;;;21.95;69.07;98938.84;10481530;28;20040;-71
2022/08/15 06:54:53;;;;;;;8.20;7.70;;;;;;;22.40;68.00;98930.88;10479239;28;20052;-71
2022/08/15 07:00:29;;;;;;;8.15;7.35;;;;;;;23.31;63.41;98922.69;10480328;28;20045;-71
2022/08/15 07:05:55;;;;;;;8.55;7.93;;;;;;;23.67;62.87;98915.41;10466989;28;20086;-71
2022/08/15 07:11:19;;;;;;;8.10;7.40;;;;;;;23.98;61.41;98913.03;10482037;28;20150;-71
2022/08/15 07:16:50;;;;;;;8.45;7.70;;;;;;;24.30;60.75;98909.63;10498756;28;20067;-71
2022/08/15 07:21:55;;;;;;;7.70;7.10;;;;;;;24.85;58.65;98905.56;10480798;28;20052;-71
2022/08/15 07:27:04;;;;;;;8.57;7.78;;;;;;;25.31;56.97;98911.28;10480620;28;20040;-71
2022/08/15 07:32:24;;;;;;;8.18;7.07;;;;;;;25.31;55.97;98913.97;10465844;28;20049;-71
2022/08/15 07:37:47;;;;;;;8.65;7.95;;;;;;;25.38;56.10;98904.22;10480976;28;20120;-71
2022/08/15 07:42:53;;;;;;;8.23;6.57;;;;;;;25.58;55.46;98904.66;10464983;28;20045;-71
2022/08/15 07:48:24;;;;;;;9.35;7.68;;;;;;;25.98;54.03;98902.88;10482072;28;20040;-71
2022/08/15 07:53:33;;;;;;;8.20;7.60;;;;;;;26.05;53.81;98899.31;10499341;28;20049;-71
2022/08/15 07:58:41;;;;;;;10.68;7.13;;;;;;;26.42;52.13;98903.97;10481244;28;20099;-70
2022/08/15 08:03:50;;;;;;;7.43;6.75;;;;;;;26.35;53.10;98894.13;10483758;28;20049;-72
2022/08/15 08:09:06;;;;;;;7.63;6.50;;;;;;;26.51;52.43;98888.63;10488755;28;20036;-71
2022/08/15 08:14:35;;;;;;;9.00;6.93;;;;;;;26.70;51.56;98887.34;10488573;28;20086;-71
2022/08/15 08:19:52;;;;;;;7.47;6.78;;;;;;;26.91;50.85;98889.34;10483457;28;20052;-71
2022/08/15 08:25:10;;;;;;;6.72;6.05;;;;;;;27.03;50.39;98879.81;10487621;28;20041;-71
2022/08/15 08:30:25;;;;;;;11.70;6.63;;;;;;;27.25;50.40;98878.13;10487187;28;20044;-72
2022/08/15 08:36:06;;;;;;;6.43;5.93;;;;;;;27.74;49.69;98872.22;10486516;28;20102;-71
2022/08/15 08:41:42;;;;;;;6.70;6.13;;;;;;;28.13;47.46;98885.41;10504747;28;20076;-71
2022/08/15 08:47:07;;;;;;;6.50;6.10;;;;;;;28.14;46.70;98883.53;10504470;28;20469;-71
2022/08/15 08:52:27;;;;;;;6.22;5.75;;;;;;;28.43;46.52;98879.97;10504243;28;20120;-71
2022/08/15 08:57:36;;;;;;;8.60;6.63;;;;;;;28.64;46.16;98882.69;10503541;28;20045;-71
2022/08/15 09:03:01;;;;;;;7.80;6.82;;;;;;;28.99;45.74;98874.69;10485275;28;20053;-71
2022/08/15 09:08:09;;;;;;;9.75;6.32;;;;;;;29.16;45.03;98869.84;10503743;28;20041;-71
2022/08/15 09:13:31;;;;;;;7.20;6.50;;;;;;;28.78;45.54;98874.72;10502787;28;20040;-71
2022/08/15 09:18:46;;;;;;;9.23;6.20;;;;;;;29.63;43.50;98869.16;10503728;28;20067;-70
2022/08/15 09:23:50;;;;;;;6.90;6.28;;;;;;;30.09;43.15;98865.00;10502803;28;20515;-71
2022/08/15 09:29:07;;;;;;;6.55;6.05;;;;;;;31.19;40.64;98869.19;10503195;28;20568;-71
2022/08/15 09:34:57;;;;;;;5.82;5.43;;;;;;;31.10;40.65;98854.16;10502362;28;20040;-71
2022/08/15 09:40:16;;;;;;;6.30;5.80;;;;;;;31.07;39.81;98849.97;10500564;28;20048;-71
2022/08/15 09:46:02;;;;;;;6.82;5.43;;;;;;;31.08;40.21;98848.13;10487744;28;20036;-71
2022/08/15 09:51:21;;;;;;;6.70;5.95;;;;;;;30.75;40.54;98845.41;10502032;28;20127;-70
2022/08/15 09:56:25;;;;;;;5.65;5.15;;;;;;;31.46;39.83;98842.88;10501558;28;20118;-70
2022/08/15 10:01:31;;;;;;;6.97;5.97;;;;;;;31.81;39.69;98846.09;10502446;28;20041;-71
2022/08/15 10:07:04;;;;;;;6.60;5.40;;;;;;;32.20;38.05;98827.16;10484098;28;20044;-71
2022/08/15 10:12:14;;;;;;;6.78;5.63;;;;;;;32.88;37.29;98825.44;10458104;28;20143;-70
2022/08/15 10:17:45;;;;;;;6.72;6.20;;;;;;;32.43;38.23;98824.72;10499734;28;20075;-70
2022/08/15 10:23:04;;;;;;;6.25;5.75;;;;;;;32.84;37.66;98817.94;10291348;28;20073;-72
2022/08/15 10:28:19;;;;;;;;;;;;;;;32.48;38.27;98813.19;10291722;28;20500;-71
2022/08/15 10:33:48;;;;;;;6.67;6.07;;;;;;;31.68;38.70;98799.13;10306096;28;19988;-71
2022/08/15 10:39:24;;;;;;;5.55;4.88;;;;;;;32.38;37.70;98787.31;10292450;28;20121;-72
2022/08/15 10:44:51;;;;;;;5.75;5.40;;;;;;;32.11;38.16;98794.78;10291258;28;20405;-71
2022/08/15 10:50:02;;;;;;;5.70;5.30;;;;;;;31.84;38.75;98804.97;10291458;28;20065;-71
2022/08/15 10:55:32;;;;;;;6.28;5.65;;;;;;;32.29;37.78;98806.81;10292228;28;20043;-71
2022/08/15 11:01:06;;;;;;;5.53;5.13;;;;;;;32.72;36.54;98795.22;10500342;28;20047;-71
2022/08/15 11:06:13;;;;;;;7.88;5.70;;;;;;;31.73;37.23;98800.16;10499425;28;20540;-70
2022/08/15 11:11:19;;;;;;;6.95;4.93;;;;;;;31.03;38.63;98799.88;10500342;28;20422;-70
2022/08/15 11:16:35;;;;;;;5.45;5.00;;;;;;;30.51;39.15;98803.41;10499683;28;20434;-71
2022/08/15 11:21:48;;;;;;;5.70;5.20;;;;;;;29.73;41.18;98792.94;10500518;28;20044;-70
2022/08/15 11:27:11;;;;;;;6.50;6.10;;;;;;;29.33;42.18;98797.31;10499986;28;20051;-71
2022/08/15 11:32:35;;;;;;;7.07;5.75;;;;;;;29.10;43.53;98803.81;10484530;28;20053;-71
2022/08/15 11:37:42;;;;;;;6.65;6.13;;;;;;;28.82;44.24;98809.22;10501175;28;20044;-71
2022/08/15 11:42:46;;;;;;;6.35;5.78;;;;;;;28.46;44.51;98808.44;10506234;28;20078;-71
2022/08/15 11:48:10;;;;;;;5.38;4.97;;;;;;;27.82;47.21;98806.50;10507215;28;20044;-72
2022/08/15 11:53:15;;;;;;;5.53;5.13;;;;;;;27.32;49.61;98800.00;10505618;28;20136;-72
2022/08/15 11:58:27;;;;;;;5.90;5.40;;;;;;;26.68;53.66;98808.50;10506364;28;20040;-72
2022/08/15 12:03:33;;;;;;;6.90;6.22;;;;;;;26.24;56.39;98824.47;10506380;28;20434;-72
2022/08/15 12:09:05;;;;;;;8.40;6.45;;;;;;;25.86;59.45;98825.19;10506427;28;20111;-72
2022/08/15 12:14:23;;;;;;;7.25;6.63;;;;;;;25.53;61.56;98829.84;10505607;28;20040;-72
2022/08/15 12:19:37;;;;;;;8.00;6.75;;;;;;;25.14;64.99;98827.09;10506291;28;20073;-71
2022/08/15 12:25:00;;;;;;;10.55;6.63;;;;;;;24.71;64.71;98822.91;10491141;28;20447;-71
2022/08/15 12:30:09;;;;;;;5.80;5.32;;;;;;;24.54;65.85;98825.59;10488070;28;20055;-71
2022/08/15 12:35:13;;;;;;;5.68;5.10;;;;;;;24.53;63.74;98831.16;10505004;28;20134;-72
2022/08/15 12:40:36;;;;;;;6.45;5.93;;;;;;;24.49;63.94;98816.38;10486599;28;20094;-71
2022/08/15 12:45:57;;;;;;;6.25;5.10;;;;;;;24.71;61.83;98798.75;10504704;28;20037;-72
2022/08/15 12:51:01;;;;;;;5.78;5.28;;;;;;;24.90;60.86;98790.31;10503006;28;20045;-71
2022/08/15 12:56:03;;;;;;;6.57;5.30;;;;;;;25.06;60.83;98770.63;10503959;28;20459;-71
2022/08/15 13:01:25;;;;;;;7.10;5.18;;;;;;;25.33;59.66;98775.63;10504480;28;20046;-71
2022/08/15 13:06:45;;;;;;;5.78;5.10;;;;;;;25.69;57.64;98776.97;10503952;28;20044;-72
2022/08/15 13:11:59;;;;;;;5.13;4.72;;;;;;;25.74;57.08;98767.34;10504307;28;20545;-71
2022/08/15 13:17:02;;;;;;;;;;;;;;;25.88;55.02;98763.94;10503214;28;20049;-71
2022/08/15 13:27:49;;;;;;;4.05;3.75;;;;;;;26.11;54.03;98750.47;10501115;28;20048;-68
2022/08/15 13:32:52;;;;;;;4.22;3.90;;;;;;;26.33;52.54;98758.75;10500518;28;20501;-69
2022/08/15 13:37:54;;;;;;;6.10;5.60;;;;;;;26.37;55.09;98766.28;10483944;28;20044;-69
2022/08/15 13:43:07;;;;;;;5.32;4.72;;;;;;;26.28;56.36;98758.44;10500187;28;20524;-68
2022/08/15 13:48:20;;;;;;;5.10;4.70;;;;;;;26.36;56.63;98751.16;10501217;28;20443;-68
2022/08/15 13:53:25;;;;;;;8.30;5.53;;;;;;;26.46;55.46;98759.00;10483276;28;20048;-68
2022/08/15 13:58:47;;;;;;;6.15;4.65;;;;;;;26.63;54.26;98765.09;10501470;28;20405;-68
2022/08/15 14:04:03;;;;;;;4.93;4.50;;;;;;;27.06;51.31;98768.88;10501497;28;20071;-68
2022/08/15 14:09:07;;;;;;;5.00;4.60;;;;;;;27.38;49.63;98764.16;10501087;28;20090;-69
2022/08/15 14:14:21;;;;;;;5.50;5.10;;;;;;;27.67;49.46;98779.50;10499861;28;20056;-68
2022/08/15 14:19:38;;;;;;;4.63;4.30;;;;;;;27.91;48.82;98775.66;10498999;28;20049;-69
2022/08/15 14:25:00;;;;;;;5.70;5.22;;;;;;;28.00;48.87;98788.00;10481503;28;20490;-69
2022/08/15 14:30:23;;;;;;;5.13;4.82;;;;;;;28.19;47.89;98791.94;10502327;28;20051;-70
2022/08/15 14:35:36;;;;;;;5.20;4.82;;;;;;;28.08;47.09;98789.75;10500385;28;20531;-70
2022/08/15 14:40:45;;;;;;;5.18;4.68;;;;;;;28.14;46.34;98783.56;10467200;28;20052;-68
2022/08/15 14:45:49;;;;;;;4.72;4.32;;;;;;;28.27;44.09;98778.31;10502030;28;20044;-71
2022/08/15 14:51:13;;;;;;;5.17;4.77;;;;;;;28.29;43.90;98775.41;10500091;28;20063;-69
2022/08/15 14:56:36;;;;;;;4.50;4.20;;;;;;;28.15;44.45;98786.06;10501779;28;20040;-69
2022/08/15 15:01:39;;;;;;;4.55;4.15;;;;;;;27.92;43.03;98801.63;10485693;28;20502;-69
2022/08/15 15:06:52;;;;;;;4.67;4.27;;;;;;;27.59;44.68;98804.72;10502795;28;20119;-71
2022/08/15 15:11:54;;;;;;;4.60;4.20;;;;;;;27.42;46.67;98812.19;10482634;28;20539;-70
2022/08/15 15:16:58;;;;;;;10.30;8.85;;;;;;;24.79;66.48;98847.94;10500552;28;20200;-71
2022/08/15 15:22:00;;;;;;;8.20;7.53;;;;;;;22.65;75.81;98857.81;10502380;28;20045;-73
2022/08/15 15:27:05;;;;;;;8.05;7.45;;;;;;;22.80;76.31;98851.91;10502226;28;20051;-73
2022/08/15 15:32:08;;;;;;;11.82;10.95;;;;;;;22.81;87.32;98853.63;10503046;28;20064;-71
2022/08/15 15:37:32;;;;;;;9.43;8.63;;;;;;;22.73;86.53;98875.81;10502269;28;20045;-72
2022/08/15 15:42:34;;;;;;;6.50;5.93;;;;;;;22.21;81.92;98888.19;10510019;28;20052;-72
2022/08/15 15:47:43;;;;;;;5.22;4.28;;;;;;;21.90;84.67;98869.72;10508708;28;20044;-72
2022/08/15 15:53:16;;;;;;;3.78;3.47;;;;;;;21.91;82.16;98845.53;10485349;28;20044;-71
2022/08/15 15:58:19;;;;;;;4.45;4.15;;;;;;;21.87;90.70;98848.66;10465736;28;20139;-72
2022/08/15 16:03:43;;;;;;;4.00;3.75;;;;;;;22.07;92.21;98844.00;10508652;28;20135;-72
2022/08/15 16:09:05;;;;;;;4.68;4.40;;;;;;;22.41;91.23;98842.38;10508845;28;20044;-71
2022/08/15 16:14:15;;;;;;;3.80;3.60;;;;;;;22.80;83.44;98838.50;10503047;28;20033;-73
2022/08/15 16:19:36;;;;;;;3.05;2.85;;;;;;;22.90;80.30;98831.28;10498802;28;20351;-73
2022/08/15 16:24:50;;;;;;;3.60;3.40;;;;;;;22.84;81.88;98824.69;10500979;28;20063;-72
2022/08/15 16:30:13;;;;;;;4.25;3.95;;;;;;;22.91;84.75;98820.38;10506562;28;20175;-72
2022/08/15 16:35:58;;;;;;;5.55;5.13;;;;;;;22.91;90.01;98809.66;10507783;28;20199;-72
2022/08/15 16:41:37;;;;;;;4.85;4.43;;;;;;;23.08;84.97;98812.47;10506665;28;20037;-73
2022/08/15 16:47:11;;;;;;;4.82;4.43;;;;;;;23.12;86.59;98809.31;10506469;28;20051;-72
2022/08/15 16:52:53;;;;;;;5.60;5.15;;;;;;;23.16;87.40;98828.59;10508415;28;20047;-73
2022/08/15 16:58:08;;;;;;;4.70;4.43;;;;;;;23.20;86.83;98834.47;10508580;28;20375;-73
2022/08/15 17:04:07;;;;;;;7.20;6.53;;;;;;;23.14;88.93;98831.44;10506091;28;20103;-72
2022/08/15 17:09:43;;;;;;;7.63;7.03;;;;;;;23.17;87.55;98832.97;10472712;28;20045;-72
2022/08/15 17:15:06;;;;;;;7.15;6.65;;;;;;;23.23;85.81;98831.47;10509585;28;20055;-72
2022/08/15 17:20:13;;;;;;;7.75;7.18;;;;;;;23.08;88.43;98829.38;10508559;28;20032;-72
2022/08/15 17:25:25;;;;;;;;;;;;;;;23.01;89.72;98839.03;10490367;28;20067;-73
2022/08/15 17:30:42;;;;;;;8.60;8.10;;;;;;;23.01;93.19;98825.66;10510924;28;20289;-73
2022/08/15 17:35:59;;;;;;;8.32;7.82;;;;;;;22.95;94.45;98820.09;10505684;28;20045;-72
2022/08/15 17:41:21;;;;;;;9.15;8.55;;;;;;;23.08;91.93;98824.03;10507676;28;20051;-72
2022/08/15 17:46:31;;;;;;;9.30;8.80;;;;;;;22.89;97.05;98810.81;10510746;28;20037;-73
2022/08/15 17:51:43;;;;;;;10.95;10.25;;;;;;;22.74;99.30;98807.00;10491817;28;20055;-72
2022/08/15 17:57:08;;;;;;;10.20;9.43;;;;;;;22.83;95.23;98812.25;10506961;28;20040;-72
2022/08/15 18:02:17;;;;;;;10.18;9.68;;;;;;;22.59;96.47;98812.91;10475069;28;20053;-72
2022/08/15 18:07:34;;;;;;;10.52;9.85;;;;;;;22.54;97.72;98825.94;10513071;28;20047;-73
2022/08/15 18:12:39;;;;;;;10.50;9.85;;;;;;;22.66;95.93;98834.56;10502576;28;20045;-74
2022/08/15 18:18:01;;;;;;;9.70;9.05;;;;;;;22.64;95.62;98836.56;10502076;28;20466;-73
2022/08/15 18:23:18;;;;;;;9.88;9.18;;;;;;;22.68;95.78;98848.66;10501055;28;20072;-72
2022/08/15 18:28:32;;;;;;;10.13;9.43;;;;;;;22.32;100.00;98862.03;10502399;28;20210;-72
2022/08/15 18:33:34;;;;;;;9.55;8.85;;;;;;;22.12;100.00;98866.69;10499780;28;20055;-72
2022/08/15 18:44:35;;;;;;;10.15;9.52;;;;;;;21.95;100.00;98875.47;10480861;28;20359;-72
2022/08/15 18:49:38;;;;;;;10.65;9.93;;;;;;;21.97;100.00;98892.25;10500958;28;20032;-73
2022/08/15 18:54:44;;;;;;;13.45;12.35;;;;;;;21.78;100.00;98890.50;10498308;28;20056;-72
2022/08/15 19:00:20;;;;;;;12.68;11.98;;;;;;;21.70;100.00;98906.44;10498084;28;20063;-72
2022/08/15 19:05:34;;;;;;;12.18;11.48;;;;;;;21.69;100.00;98922.63;10498001;28;20040;-73
2022/08/15 19:10:47;;;;;;;11.75;10.85;;;;;;;21.68;100.00;98929.81;10483284;28;20090;-72
2022/08/15 19:16:04;;;;;;;11.82;11.13;;;;;;;21.74;100.00;98941.78;10497995;28;20051;-72
2022/08/15 19:21:11;;;;;;;11.77;10.97;;;;;;;21.61;100.00;98940.25;10448928;23;1142814;-74
2022/08/15 19:26:37;;;;;;;12.73;11.93;;;;;;;21.45;100.00;98953.38;10404946;28;20073;-74
2022/08/15 19:31:54;;;;;;;12.90;12.10;;;;;;;21.41;100.00;98968.84;10421278;28;20077;-73
2022/08/15 19:37:07;;;;;;;12.80;11.88;;;;;;;21.51;100.00;98966.16;10402039;28;20053;-74
2022/08/15 19:42:37;;;;;;;13.35;12.55;;;;;;;21.41;100.00;98974.19;10418934;28;20410;-74
2022/08/15 19:48:11;;;;;;;12.48;11.60;;;;;;;21.26;100.00;98980.13;10418138;28;20049;-74
2022/08/15 19:53:22;;;;;;;10.65;9.98;;;;;;;21.31;100.00;98975.19;10420883;28;20068;-74
2022/08/15 19:58:54;;;;;;;12.00;10.77;;;;;;;21.48;100.00;98977.16;10423790;28;20453;-74
2022/08/15 20:04:06;;;;;;;11.02;10.32;;;;;;;21.67;99.18;98977.09;10427250;28;20071;-74
2022/08/15 20:09:56;;;;;;;10.88;10.27;;;;;;;21.28;100.00;98983.47;10426471;28;20413;-74
2022/08/15 20:15:56;;;;;;;13.77;12.77;;;;;;;20.99;100.00;98979.00;10426726;28;20053;-74
2022/08/15 20:21:01;;;;;;;13.25;12.45;;;;;;;20.89;100.00;98988.81;10299462;28;20098;-74
2022/08/15 20:26:38;;;;;;;11.98;11.23;;;;;;;21.07;100.00;98995.19;10284455;28;20138;-74
2022/08/15 20:31:49;;;;;;;11.73;11.00;;;;;;;20.99;100.00;99003.06;10301300;28;20109;-74
2022/08/15 20:37:09;;;;;;;13.35;12.07;;;;;;;20.81;100.00;99002.06;10299910;28;20082;-74
2022/08/15 20:42:33;;;;;;;12.30;11.50;;;;;;;20.79;100.00;99014.69;10297772;28;20063;-74
2022/08/15 20:47:42;;;;;;;12.45;11.65;;;;;;;20.94;100.00;99015.97;10297163;28;20529;-74
2022/08/15 20:53:06;;;;;;;13.18;12.27;;;;;;;20.95;100.00;99028.34;10311405;28;20069;-74
2022/08/15 20:58:17;;;;;;;13.68;12.63;;;;;;;21.07;100.00;99021.03;10414250;28;20073;-74
2022/08/15 21:03:21;;;;;;;13.13;12.32;;;;;;;20.75;100.00;99034.63;10423799;28;20080;-73
2022/08/15 21:09:00;;;;;;;14.02;13.25;;;;;;;20.67;100.00;99048.66;10422275;28;20387;-73
2022/08/15 21:14:50;;;;;;;13.63;12.70;;;;;;;20.69;100.00;99053.88;10423079;28;20079;-73
2022/08/15 21:20:21;;;;;;;12.85;12.13;;;;;;;20.90;100.00;99060.81;10297978;28;20171;-74
2022/08/15 21:25:36;;;;;;;12.32;11.50;;;;;;;20.69;100.00;99069.91;10296892;28;20562;-73
2022/08/15 21:30:46;;;;;;;12.55;11.85;;;;;;;20.78;100.00;99071.75;10296801;28;20047;-74
2022/08/15 21:36:21;;;;;;;12.82;11.73;;;;;;;20.73;100.00;99074.00;10296734;28;20535;-73
2022/08/15 21:41:36;;;;;;;13.20;12.40;;;;;;;20.51;100.00;99064.38;10296704;28;20534;-76
2022/08/15 21:46:57;;;;;;;14.63;13.82;;;;;;;20.36;100.00;99069.19;10296397;28;20496;-76
2022/08/15 21:52:00;;;;;;;14.15;13.35;;;;;;;20.30;100.00;99064.41;10295560;28;20059;-76
2022/08/15 21:57:09;;;;;;;13.13;12.38;;;;;;;20.31;100.00;99068.75;10365542;28;20049;-74
2022/08/15 22:02:43;;;;;;;15.60;14.63;;;;;;;20.16;100.00;99082.44;10419493;28;20045;-75
2022/08/15 22:07:48;;;;;;;13.90;13.10;;;;;;;20.14;100.00;99079.09;10413636;28;20076;-75
2022/08/15 22:13:10;;;;;;;14.00;13.20;;;;;;;20.23;100.00;99095.25;10421746;28;20099;-76
2022/08/15 22:18:13;;;;;;;13.70;12.70;;;;;;;20.56;100.00;99091.50;10419624;28;20041;-75
2022/08/15 22:23:33;;;;;;;13.57;12.77;;;;;;;20.22;100.00;99088.22;10419313;28;20045;-75
2022/08/15 22:28:35;;;;;;;15.02;14.07;;;;;;;19.99;100.00;99082.22;10420083;28;20045;-75
2022/08/15 22:33:58;;;;;;;16.38;14.90;;;;;;;20.16;100.00;99105.63;10421377;28;20053;-76
2022/08/15 22:39:00;;;;;;;15.60;14.50;;;;;;;20.15;100.00;99093.28;10420873;28;20044;-74
2022/08/15 22:44:04;;;;;;;14.70;13.80;;;;;;;19.84;100.00;99095.88;10420604;28;20483;-76
2022/08/15 22:49:18;;;;;;;14.98;14.00;;;;;;;19.70;100.00;99104.22;10421367;28;20052;-75
2022/08/15 22:54:27;;;;;;;15.68;14.70;;;;;;;19.69;100.00;99105.16;10403695;28;20454;-75
2022/08/15 22:59:43;;;;;;;16.05;15.15;;;;;;;20.03;100.00;99115.66;10401997;28;20075;-75
2022/08/15 23:05:07;;;;;;;17.63;16.42;;;;;;;19.70;100.00;99114.00;10420441;28;20545;-77
2022/08/15 23:10:28;;;;;;;17.43;16.10;;;;;;;19.60;100.00;99112.13;10420016;28;20045;-75
2022/08/15 23:15:46;;;;;;;16.00;15.10;;;;;;;19.58;100.00;99110.53;10419369;28;20351;-76
2022/08/15 23:20:53;;;;;;;16.40;15.40;;;;;;;19.45;100.00;99112.53;10402117;28;20043;-76
2022/08/15 23:25:58;;;;;;;14.55;13.65;;;;;;;19.44;100.00;99105.53;10418348;28;20080;-75
2022/08/15 23:31:29;;;;;;;13.23;12.30;;;;;;;19.50;100.00;99108.50;10417062;28;20056;-75
2022/08/15 23:36:57;;;;;;;10.88;10.20;;;;;;;19.73;100.00;99113.75;10424001;28;20052;-75
2022/08/15 23:42:13;;;;;;;12.93;12.13;;;;;;;19.38;100.00;99118.34;10408545;28;20049;-75
2022/08/15 23:47:17;;;;;;;13.82;13.02;;;;;;;19.47;100.00;99130.06;10425938;28;20045;-75
2022/08/15 23:52:26;;;;;;;14.88;13.98;;;;;;;19.31;100.00;99133.19;10426145;28;20419;-76
2022/08/15 23:57:30;;;;;;;11.27;10.63;;;;;;;19.41;100.00;99133.25;10425844;28;20033;-75
